createdAt,value
2019-01-11T00:02:12.232Z,26.57
2019-01-11T00:07:19.844Z,27.13
2019-01-11T00:12:27.532Z,25.80
2019-01-11T00:17:35.148Z,26.81
2019-01-11T00:22:42.793Z,36.38
2019-01-11T00:27:50.417Z,28.07
2019-01-11T00:32:58.150Z,27.29
2019-01-11T00:38:05.789Z,27.59
2019-01-11T00:43:15.143Z,27.40
2019-01-11T00:48:20.559Z,27.62
2019-01-11T00:53:28.253Z,28.77
2019-01-11T00:58:35.881Z,29.83
2019-01-11T01:03:43.544Z,28.70
2019-01-11T01:08:51.172Z,29.17
2019-01-11T01:13:58.872Z,30.44
2019-01-11T01:19:06.506Z,29.27
2019-01-11T01:24:14.170Z,38.04
2019-01-11T01:29:21.785Z,28.00
2019-01-11T01:34:29.413Z,28.10
2019-01-11T01:39:37.069Z,27.90
2019-01-11T01:44:44.765Z,37.03
2019-01-11T01:49:52.401Z,27.79
2019-01-11T01:55:00.182Z,27.54
2019-01-11T02:00:07.744Z,29.73
2019-01-11T02:05:15.416Z,30.48
2019-01-11T02:10:23.057Z,30.35
2019-01-11T02:15:30.753Z,37.05
2019-01-11T02:20:38.396Z,28.30
2019-01-11T02:25:46.259Z,38.87
2019-01-11T02:30:53.204Z,27.85
2019-01-11T02:36:00.918Z,39.02
2019-01-11T02:41:08.524Z,38.56
2019-01-11T02:46:16.148Z,28.17
2019-01-11T02:51:23.766Z,38.33
2019-01-11T02:56:31.416Z,38.46
2019-01-11T03:01:39.041Z,27.52
2019-01-11T03:06:46.709Z,28.89
2019-01-11T03:11:54.300Z,35.53
2019-01-11T03:17:01.996Z,37.11
2019-01-11T03:22:09.605Z,27.86
2019-01-11T03:27:17.264Z,29.39
2019-01-11T03:32:24.923Z,39.57
2019-01-11T03:37:32.617Z,30.45
2019-01-11T03:42:40.240Z,29.58
2019-01-11T03:47:47.936Z,30.12
2019-01-11T03:52:55.552Z,30.53
2019-01-11T03:58:03.243Z,32.14
2019-01-11T04:03:10.876Z,32.45
2019-01-11T04:08:18.588Z,33.48
2019-01-11T04:13:30.466Z,45.17
2019-01-11T04:18:33.412Z,33.78
2019-01-11T04:23:41.075Z,34.50
2019-01-11T04:28:48.708Z,37.16
2019-01-11T04:33:56.360Z,38.83
2019-01-11T04:39:04.013Z,40.67
2019-01-11T04:44:11.644Z,41.59
2019-01-11T04:49:19.341Z,42.98
2019-01-11T04:54:26.994Z,44.43
2019-01-11T04:59:34.667Z,62.71
2019-01-11T05:04:42.286Z,46.92
2019-01-11T05:09:49.977Z,47.02
2019-01-11T05:14:57.632Z,48.13
2019-01-11T05:20:05.292Z,66.44
2019-01-11T05:25:12.921Z,48.70
2019-01-11T05:30:20.642Z,50.02
2019-01-11T05:35:28.256Z,49.96
2019-01-11T05:40:35.961Z,51.51
2019-01-11T05:45:43.572Z,51.16
2019-01-11T05:50:51.260Z,52.19
2019-01-11T05:55:58.881Z,71.84
2019-01-11T06:01:06.546Z,71.93
2019-01-11T06:06:14.156Z,51.82
2019-01-11T06:11:21.813Z,49.69
2019-01-11T06:16:29.418Z,75.65
2019-01-11T06:21:37.112Z,53.45
2019-01-11T06:26:44.764Z,52.24
2019-01-11T06:31:52.433Z,73.17
2019-01-11T06:37:00.085Z,52.62
2019-01-11T06:42:07.805Z,66.45
2019-01-11T06:47:16.894Z,60.06
2019-01-11T06:52:22.676Z,47.49
2019-01-11T06:57:30.350Z,46.20
2019-01-11T07:02:38.057Z,49.38
2019-01-11T07:07:45.700Z,49.41
2019-01-11T07:12:53.378Z,51.53
2019-01-11T07:18:01.004Z,73.09
2019-01-11T07:23:08.708Z,54.28
2019-01-11T07:28:16.340Z,73.86
2019-01-11T07:33:24.301Z,70.17
2019-01-11T07:38:31.900Z,53.97
2019-01-11T07:43:39.536Z,52.31
2019-01-11T07:48:47.186Z,50.84
2019-01-11T07:53:54.813Z,73.70
2019-01-11T07:59:02.449Z,54.30
2019-01-11T08:04:10.057Z,54.83
2019-01-11T08:09:17.783Z,55.28
2019-01-11T08:14:25.422Z,56.39
2019-01-11T08:19:33.090Z,56.77
2019-01-11T08:24:40.698Z,59.87
2019-01-11T08:29:48.369Z,58.36
2019-01-11T08:34:55.992Z,57.85
2019-01-11T08:40:03.665Z,59.38
2019-01-11T08:45:11.301Z,60.36
2019-01-11T08:50:19.052Z,61.05
2019-01-11T08:55:26.680Z,83.52
2019-01-11T09:00:34.372Z,60.09
2019-01-11T09:05:42.004Z,60.37
2019-01-11T09:10:49.644Z,83.11
2019-01-11T09:15:57.288Z,61.30
2019-01-11T09:21:09.339Z,64.16
2019-01-11T09:26:12.114Z,81.30
2019-01-11T09:31:19.717Z,60.61
2019-01-11T09:36:27.420Z,56.16
2019-01-11T09:41:35.032Z,56.79
2019-01-11T09:46:42.681Z,58.20
2019-01-11T09:51:50.296Z,55.50
2019-01-11T09:56:57.937Z,55.51
2019-01-11T10:02:05.706Z,54.81
2019-01-11T10:07:13.328Z,52.26
2019-01-11T10:12:21.046Z,50.34
2019-01-11T10:17:28.672Z,48.52
2019-01-11T10:22:36.453Z,44.54
2019-01-11T10:27:44.080Z,44.61
2019-01-11T10:32:51.805Z,51.24
2019-01-11T10:37:59.425Z,37.82
2019-01-11T10:43:07.134Z,35.14
2019-01-11T10:48:14.744Z,33.14
2019-01-11T10:53:22.509Z,32.75
2019-01-11T10:58:30.127Z,38.40
2019-01-11T11:03:37.853Z,36.77
2019-01-11T11:08:45.470Z,28.88
2019-01-11T11:13:53.193Z,29.39
2019-01-11T11:19:00.816Z,36.01
2019-01-11T11:24:08.511Z,25.55
2019-01-11T11:29:16.210Z,22.97
2019-01-11T11:34:23.824Z,24.27
2019-01-11T11:39:31.433Z,23.42
2019-01-11T11:44:39.043Z,22.71
2019-01-11T11:49:46.696Z,22.72
2019-01-11T11:54:54.321Z,17.47
2019-01-11T12:00:01.965Z,15.93
2019-01-11T12:05:09.569Z,17.86
2019-01-11T12:10:17.249Z,15.31
2019-01-11T12:15:24.888Z,15.04
2019-01-11T12:20:32.529Z,14.48
2019-01-11T12:25:40.159Z,13.24
2019-01-11T12:30:47.800Z,14.29
2019-01-11T12:35:55.453Z,11.39
2019-01-11T12:41:03.135Z,11.89
2019-01-11T12:46:10.777Z,12.47
2019-01-11T12:51:18.421Z,12.60
2019-01-11T12:56:26.064Z,12.25
2019-01-11T13:01:33.776Z,12.18
2019-01-11T13:06:41.376Z,13.85
2019-01-11T13:11:49.149Z,13.34
2019-01-11T13:16:56.783Z,10.84
2019-01-11T13:22:04.440Z,8.76
2019-01-11T13:27:12.089Z,8.29
2019-01-11T13:32:19.585Z,6.76
2019-01-11T13:37:27.220Z,6.37
2019-01-11T13:42:35.103Z,5.35
2019-01-11T13:47:42.744Z,6.50
2019-01-11T13:52:50.400Z,5.92
2019-01-11T13:57:58.082Z,5.56
2019-01-11T14:03:05.776Z,4.57
2019-01-11T14:08:13.408Z,5.07
2019-01-11T14:13:21.021Z,4.74
2019-01-11T14:18:28.747Z,2.65
2019-01-11T14:23:36.374Z,2.72
2019-01-11T14:28:44.078Z,2.50
2019-01-11T14:33:51.726Z,3.29
2019-01-11T14:38:59.441Z,3.25
2019-01-11T14:44:07.063Z,3.38
2019-01-11T14:49:14.714Z,4.58
2019-01-11T14:54:22.310Z,3.82
2019-01-11T14:59:30.002Z,4.16
2019-01-11T15:04:37.633Z,4.55
2019-01-11T15:09:45.274Z,4.35
2019-01-11T15:14:52.905Z,4.36
2019-01-11T15:20:00.546Z,4.09
2019-01-11T15:25:08.197Z,5.35
2019-01-11T15:31:10.573Z,4.79
2019-01-11T15:35:17.333Z,4.88
2019-01-11T15:40:36.906Z,4.40
2019-01-11T15:45:32.452Z,4.11
2019-01-11T15:50:49.956Z,4.73
2019-01-11T15:56:02.670Z,4.59
2019-01-11T16:00:49.849Z,3.73
2019-01-11T16:05:57.696Z,3.97
2019-01-11T16:11:05.317Z,4.03
2019-01-11T16:16:13.021Z,4.10
2019-01-11T16:21:20.628Z,4.11
2019-01-11T16:26:28.244Z,4.72
2019-01-11T16:31:35.880Z,6.60
2019-01-11T16:36:43.600Z,6.52
2019-01-11T16:41:52.005Z,6.64
2019-01-11T16:46:59.684Z,5.45
2019-01-11T16:52:07.291Z,5.51
2019-01-11T16:57:14.957Z,6.25
2019-01-11T17:02:22.593Z,7.82
2019-01-11T17:07:30.298Z,7.73
2019-01-11T17:12:41.739Z,7.06
2019-01-11T17:17:45.061Z,8.22
2019-01-11T17:22:53.122Z,9.09
2019-01-11T17:27:59.855Z,11.43
2019-01-11T17:33:08.948Z,9.13
2019-01-11T17:38:16.646Z,7.81
2019-01-11T17:43:24.273Z,7.42
2019-01-11T17:48:32.045Z,6.80
2019-01-11T17:53:39.678Z,6.57
2019-01-11T17:58:47.384Z,6.43
2019-01-11T18:03:55.015Z,6.71
2019-01-11T18:09:02.681Z,7.14
2019-01-11T18:14:10.339Z,9.60
2019-01-11T18:19:18.006Z,8.30
2019-01-11T18:24:25.631Z,8.74
2019-01-11T18:29:33.348Z,9.95
2019-01-11T18:34:40.984Z,8.40
2019-01-11T18:39:48.657Z,7.41
2019-01-11T18:44:56.281Z,9.06
2019-01-11T18:50:04.046Z,9.71
2019-01-11T18:55:11.648Z,6.24
2019-01-11T19:00:20.651Z,5.93
2019-01-11T19:05:26.542Z,8.95
2019-01-11T19:10:34.140Z,8.24
2019-01-11T19:15:41.869Z,5.87
2019-01-11T19:20:49.476Z,6.30
2019-01-11T19:25:57.208Z,6.85
2019-01-11T19:31:04.841Z,7.09
2019-01-11T19:36:12.528Z,5.54
2019-01-11T19:41:20.185Z,6.36
2019-01-11T19:46:27.775Z,5.38
2019-01-11T19:51:35.435Z,4.34
2019-01-11T19:56:43.125Z,4.37
2019-01-11T20:01:50.748Z,3.49
2019-01-11T20:06:58.486Z,3.03
2019-01-11T20:12:06.102Z,3.19
2019-01-11T20:17:14.305Z,3.29
2019-01-11T20:22:20.960Z,3.48
2019-01-11T20:27:28.645Z,3.09
2019-01-11T20:32:36.252Z,2.98
2019-01-11T20:37:44.037Z,3.10
2019-01-11T20:42:51.690Z,3.01
2019-01-11T20:47:59.326Z,2.50
2019-01-11T20:53:06.940Z,3.27
2019-01-11T20:58:14.672Z,3.77
2019-01-11T21:03:22.357Z,4.71
2019-01-11T21:08:29.993Z,4.64
2019-01-11T21:13:37.616Z,5.20
2019-01-11T21:18:45.334Z,4.82
2019-01-11T21:23:52.956Z,5.40
2019-01-11T21:29:00.632Z,5.55
2019-01-11T21:34:08.302Z,5.88
2019-01-11T21:39:16.009Z,4.53
2019-01-11T21:44:23.613Z,3.88
2019-01-11T21:49:31.330Z,3.83
2019-01-11T21:54:39.016Z,3.95
2019-01-11T21:59:46.674Z,4.00
2019-01-11T22:04:54.273Z,3.39
2019-01-11T22:10:01.920Z,3.73
2019-01-11T22:15:09.532Z,3.89
2019-01-11T22:20:17.157Z,3.90
2019-01-11T22:25:24.781Z,3.98
2019-01-11T22:30:32.504Z,4.94
2019-01-11T22:35:40.138Z,6.13
2019-01-11T22:40:47.802Z,9.15
2019-01-11T22:45:55.433Z,8.52
2019-01-11T22:51:03.089Z,9.51
2019-01-11T22:56:10.700Z,10.67
2019-01-11T23:01:18.402Z,11.85
2019-01-11T23:06:26.004Z,13.98
2019-01-11T23:11:33.733Z,10.55
2019-01-11T23:16:41.343Z,11.99
2019-01-11T23:21:49.005Z,9.19
2019-01-11T23:26:56.636Z,8.91
2019-01-11T23:32:04.338Z,10.36
2019-01-11T23:37:11.965Z,12.95
2019-01-11T23:42:19.664Z,16.46
2019-01-11T23:47:27.292Z,18.63
2019-01-11T23:52:35.016Z,20.23
2019-01-11T23:57:42.648Z,21.03
